sensor_id;sensor_type;location;lat;lon;timestamp;temperature;humidity
5280;DHT22;2663;53.588;10.010;2023-04-25T00:02:17;9.10;99.90
5280;DHT22;2663;53.588;10.010;2023-04-25T00:04:44;9.10;99.90
5280;DHT22;2663;53.588;10.010;2023-04-25T00:07:11;9.10;99.90
5280;DHT22;2663;53.588;10.010;2023-04-25T00:09:39;9.00;99.90
5280;DHT22;2663;53.588;10.010;2023-04-25T00:12:05;8.80;99.90
5280;DHT22;2663;53.588;10.010;2023-04-25T00:14:32;8.80;99.90
5280;DHT22;2663;53.588;10.010;2023-04-25T00:17:02;8.70;99.90
5280;DHT22;2663;53.588;10.010;2023-04-25T00:19:32;8.60;99.90
5280;DHT22;2663;53.588;10.010;2023-04-25T00:22:01;8.70;99.90
5280;DHT22;2663;53.588;10.010;2023-04-25T00:24:27;8.80;99.90
5280;DHT22;2663;53.588;10.010;2023-04-25T00:26:54;8.70;99.90
5280;DHT22;2663;53.588;10.010;2023-04-25T00:29:21;8.70;99.90
5280;DHT22;2663;53.588;10.010;2023-04-25T00:31:47;8.60;99.90
5280;DHT22;2663;53.588;10.010;2023-04-25T00:34:14;8.60;99.90
5280;DHT22;2663;53.588;10.010;2023-04-25T00:36:41;8.60;99.90
5280;DHT22;2663;53.588;10.010;2023-04-25T00:39:07;8.70;99.90
5280;DHT22;2663;53.588;10.010;2023-04-25T00:41:34;8.70;99.90
5280;DHT22;2663;53.588;10.010;2023-04-25T00:44:03;8.70;99.90
5280;DHT22;2663;53.588;10.010;2023-04-25T00:46:31;8.70;99.90
5280;DHT22;2663;53.588;10.010;2023-04-25T00:48:57;8.70;99.90
5280;DHT22;2663;53.588;10.010;2023-04-25T00:51:25;8.70;99.90
5280;DHT22;2663;53.588;10.010;2023-04-25T00:53:53;8.70;99.90
5280;DHT22;2663;53.588;10.010;2023-04-25T00:56:20;8.60;99.90
5280;DHT22;2663;53.588;10.010;2023-04-25T00:58:48;8.60;99.90
5280;DHT22;2663;53.588;10.010;2023-04-25T01:01:16;8.60;99.90
5280;DHT22;2663;53.588;10.010;2023-04-25T01:03:43;8.60;99.90
5280;DHT22;2663;53.588;10.010;2023-04-25T01:06:12;8.60;99.90
5280;DHT22;2663;53.588;10.010;2023-04-25T01:08:39;8.50;99.90
5280;DHT22;2663;53.588;10.010;2023-04-25T01:11:06;8.50;99.90
5280;DHT22;2663;53.588;10.010;2023-04-25T01:13:34;8.60;99.90
5280;DHT22;2663;53.588;10.010;2023-04-25T01:16:02;8.60;99.90
5280;DHT22;2663;53.588;10.010;2023-04-25T01:18:28;8.60;99.90
5280;DHT22;2663;53.588;10.010;2023-04-25T01:20:55;8.60;99.90
5280;DHT22;2663;53.588;10.010;2023-04-25T01:23:23;8.60;99.90
5280;DHT22;2663;53.588;10.010;2023-04-25T01:25:50;8.50;99.90
5280;DHT22;2663;53.588;10.010;2023-04-25T01:28:17;8.60;99.90
5280;DHT22;2663;53.588;10.010;2023-04-25T01:30:44;8.50;99.90
5280;DHT22;2663;53.588;10.010;2023-04-25T01:33:11;8.50;99.90
5280;DHT22;2663;53.588;10.010;2023-04-25T01:35:39;8.40;99.90
5280;DHT22;2663;53.588;10.010;2023-04-25T01:38:06;8.50;99.90
5280;DHT22;2663;53.588;10.010;2023-04-25T01:40:33;8.10;99.90
5280;DHT22;2663;53.588;10.010;2023-04-25T01:43:00;9.70;99.90
5280;DHT22;2663;53.588;10.010;2023-04-25T01:45:27;8.20;99.90
5280;DHT22;2663;53.588;10.010;2023-04-25T01:47:54;8.30;99.90
5280;DHT22;2663;53.588;10.010;2023-04-25T01:50:21;8.30;99.90
5280;DHT22;2663;53.588;10.010;2023-04-25T01:52:48;8.20;99.90
5280;DHT22;2663;53.588;10.010;2023-04-25T01:55:14;8.20;99.90
5280;DHT22;2663;53.588;10.010;2023-04-25T01:57:41;8.20;99.90
5280;DHT22;2663;53.588;10.010;2023-04-25T02:00:08;8.20;99.90
5280;DHT22;2663;53.588;10.010;2023-04-25T02:02:35;8.30;99.90
5280;DHT22;2663;53.588;10.010;2023-04-25T02:05:02;8.30;99.90
5280;DHT22;2663;53.588;10.010;2023-04-25T02:07:29;8.30;99.90
5280;DHT22;2663;53.588;10.010;2023-04-25T02:09:56;8.20;99.90
5280;DHT22;2663;53.588;10.010;2023-04-25T02:12:23;8.20;99.90
5280;DHT22;2663;53.588;10.010;2023-04-25T02:14:49;8.30;99.90
5280;DHT22;2663;53.588;10.010;2023-04-25T02:17:16;8.20;99.90
5280;DHT22;2663;53.588;10.010;2023-04-25T02:19:43;8.20;99.90
5280;DHT22;2663;53.588;10.010;2023-04-25T02:22:10;8.20;99.90
5280;DHT22;2663;53.588;10.010;2023-04-25T02:24:37;8.20;99.90
5280;DHT22;2663;53.588;10.010;2023-04-25T02:27:03;8.10;99.90
5280;DHT22;2663;53.588;10.010;2023-04-25T02:29:30;8.10;99.90
5280;DHT22;2663;53.588;10.010;2023-04-25T02:31:57;8.10;99.90
5280;DHT22;2663;53.588;10.010;2023-04-25T02:34:23;8.10;99.90
5280;DHT22;2663;53.588;10.010;2023-04-25T02:36:50;8.10;99.90
5280;DHT22;2663;53.588;10.010;2023-04-25T02:39:17;8.00;99.90
5280;DHT22;2663;53.588;10.010;2023-04-25T02:41:44;8.10;99.90
5280;DHT22;2663;53.588;10.010;2023-04-25T02:44:11;8.10;99.90
5280;DHT22;2663;53.588;10.010;2023-04-25T02:46:37;8.20;99.90
5280;DHT22;2663;53.588;10.010;2023-04-25T02:49:06;8.10;99.90
5280;DHT22;2663;53.588;10.010;2023-04-25T02:51:32;8.10;99.90
5280;DHT22;2663;53.588;10.010;2023-04-25T02:53:59;8.00;99.90
5280;DHT22;2663;53.588;10.010;2023-04-25T02:56:26;8.10;99.90
5280;DHT22;2663;53.588;10.010;2023-04-25T02:58:53;7.90;99.90
5280;DHT22;2663;53.588;10.010;2023-04-25T03:01:20;7.90;99.90
5280;DHT22;2663;53.588;10.010;2023-04-25T03:03:47;8.00;99.90
5280;DHT22;2663;53.588;10.010;2023-04-25T03:06:14;7.90;99.90
5280;DHT22;2663;53.588;10.010;2023-04-25T03:08:41;8.00;99.90
5280;DHT22;2663;53.588;10.010;2023-04-25T03:11:09;7.80;99.90
5280;DHT22;2663;53.588;10.010;2023-04-25T03:13:36;7.80;99.90
5280;DHT22;2663;53.588;10.010;2023-04-25T03:16:03;7.80;99.90
5280;DHT22;2663;53.588;10.010;2023-04-25T03:18:30;7.70;99.90
5280;DHT22;2663;53.588;10.010;2023-04-25T03:20:58;7.80;99.90
5280;DHT22;2663;53.588;10.010;2023-04-25T03:23:24;7.70;99.90
5280;DHT22;2663;53.588;10.010;2023-04-25T03:25:52;7.70;99.90
5280;DHT22;2663;53.588;10.010;2023-04-25T03:28:19;7.60;99.90
5280;DHT22;2663;53.588;10.010;2023-04-25T03:30:46;7.60;99.90
5280;DHT22;2663;53.588;10.010;2023-04-25T03:33:13;7.60;99.90
5280;DHT22;2663;53.588;10.010;2023-04-25T03:35:39;7.60;99.90
5280;DHT22;2663;53.588;10.010;2023-04-25T03:38:06;7.50;99.90
5280;DHT22;2663;53.588;10.010;2023-04-25T03:40:32;7.50;99.90
5280;DHT22;2663;53.588;10.010;2023-04-25T03:42:59;7.50;99.90
5280;DHT22;2663;53.588;10.010;2023-04-25T03:45:26;7.50;99.90
5280;DHT22;2663;53.588;10.010;2023-04-25T03:47:52;7.50;99.90
5280;DHT22;2663;53.588;10.010;2023-04-25T03:50:19;7.40;99.90
5280;DHT22;2663;53.588;10.010;2023-04-25T03:52:46;7.40;99.90
5280;DHT22;2663;53.588;10.010;2023-04-25T03:55:12;7.30;99.90
5280;DHT22;2663;53.588;10.010;2023-04-25T03:57:39;7.30;99.90
5280;DHT22;2663;53.588;10.010;2023-04-25T04:00:06;7.30;99.90
5280;DHT22;2663;53.588;10.010;2023-04-25T04:02:33;7.40;99.90
5280;DHT22;2663;53.588;10.010;2023-04-25T04:05:01;7.30;99.90
5280;DHT22;2663;53.588;10.010;2023-04-25T04:07:29;7.30;99.90
5280;DHT22;2663;53.588;10.010;2023-04-25T04:09:56;7.30;99.90
5280;DHT22;2663;53.588;10.010;2023-04-25T04:12:22;7.30;99.90
5280;DHT22;2663;53.588;10.010;2023-04-25T04:14:49;7.40;99.90
5280;DHT22;2663;53.588;10.010;2023-04-25T04:17:16;7.30;99.90
5280;DHT22;2663;53.588;10.010;2023-04-25T04:19:42;7.30;99.90
5280;DHT22;2663;53.588;10.010;2023-04-25T04:22:09;7.30;99.90
5280;DHT22;2663;53.588;10.010;2023-04-25T04:24:36;7.20;99.90
5280;DHT22;2663;53.588;10.010;2023-04-25T04:27:03;7.20;99.90
5280;DHT22;2663;53.588;10.010;2023-04-25T04:29:30;7.30;99.90
5280;DHT22;2663;53.588;10.010;2023-04-25T04:31:57;7.30;99.90
5280;DHT22;2663;53.588;10.010;2023-04-25T04:34:24;7.20;99.90
5280;DHT22;2663;53.588;10.010;2023-04-25T04:36:52;7.20;99.90
5280;DHT22;2663;53.588;10.010;2023-04-25T04:39:18;7.30;99.90
5280;DHT22;2663;53.588;10.010;2023-04-25T04:41:45;7.20;99.90
5280;DHT22;2663;53.588;10.010;2023-04-25T04:44:12;7.30;99.90
5280;DHT22;2663;53.588;10.010;2023-04-25T04:46:38;7.30;99.90
5280;DHT22;2663;53.588;10.010;2023-04-25T04:49:09;7.30;99.90
5280;DHT22;2663;53.588;10.010;2023-04-25T04:51:36;7.20;99.90
5280;DHT22;2663;53.588;10.010;2023-04-25T04:54:03;7.30;99.90
5280;DHT22;2663;53.588;10.010;2023-04-25T04:56:31;7.30;99.90
5280;DHT22;2663;53.588;10.010;2023-04-25T04:58:58;7.30;99.90
5280;DHT22;2663;53.588;10.010;2023-04-25T05:01:26;7.30;99.90
5280;DHT22;2663;53.588;10.010;2023-04-25T05:03:52;7.30;99.90
5280;DHT22;2663;53.588;10.010;2023-04-25T05:06:20;7.30;99.90
5280;DHT22;2663;53.588;10.010;2023-04-25T05:08:47;7.30;99.90
5280;DHT22;2663;53.588;10.010;2023-04-25T05:11:14;7.30;99.90
5280;DHT22;2663;53.588;10.010;2023-04-25T05:13:40;7.30;99.90
5280;DHT22;2663;53.588;10.010;2023-04-25T05:16:07;7.30;99.90
5280;DHT22;2663;53.588;10.010;2023-04-25T05:18:34;7.30;99.90
5280;DHT22;2663;53.588;10.010;2023-04-25T05:21:00;7.20;99.90
5280;DHT22;2663;53.588;10.010;2023-04-25T05:23:27;6.90;99.90
5280;DHT22;2663;53.588;10.010;2023-04-25T05:25:54;6.80;99.90
5280;DHT22;2663;53.588;10.010;2023-04-25T05:28:21;6.90;99.90
5280;DHT22;2663;53.588;10.010;2023-04-25T05:30:48;6.90;99.90
5280;DHT22;2663;53.588;10.010;2023-04-25T05:33:15;6.90;99.90
5280;DHT22;2663;53.588;10.010;2023-04-25T05:35:42;6.90;99.90
5280;DHT22;2663;53.588;10.010;2023-04-25T05:38:09;7.00;99.90
5280;DHT22;2663;53.588;10.010;2023-04-25T05:40:35;7.10;99.90
5280;DHT22;2663;53.588;10.010;2023-04-25T05:43:02;7.10;99.90
5280;DHT22;2663;53.588;10.010;2023-04-25T05:45:29;7.20;99.90
5280;DHT22;2663;53.588;10.010;2023-04-25T05:47:55;7.10;99.90
5280;DHT22;2663;53.588;10.010;2023-04-25T05:50:22;7.20;99.90
5280;DHT22;2663;53.588;10.010;2023-04-25T05:52:49;7.20;99.90
5280;DHT22;2663;53.588;10.010;2023-04-25T05:55:16;7.30;99.90
5280;DHT22;2663;53.588;10.010;2023-04-25T05:57:42;7.50;99.90
5280;DHT22;2663;53.588;10.010;2023-04-25T06:00:13;8.40;99.90
5280;DHT22;2663;53.588;10.010;2023-04-25T06:02:39;8.30;99.90
5280;DHT22;2663;53.588;10.010;2023-04-25T06:05:07;8.60;99.90
5280;DHT22;2663;53.588;10.010;2023-04-25T06:07:34;8.20;99.90
5280;DHT22;2663;53.588;10.010;2023-04-25T06:10:01;7.80;99.90
5280;DHT22;2663;53.588;10.010;2023-04-25T06:12:27;7.70;99.90
5280;DHT22;2663;53.588;10.010;2023-04-25T06:14:54;7.60;99.90
5280;DHT22;2663;53.588;10.010;2023-04-25T06:17:21;7.70;99.90
5280;DHT22;2663;53.588;10.010;2023-04-25T06:19:47;7.60;99.90
5280;DHT22;2663;53.588;10.010;2023-04-25T06:22:14;7.70;99.90
5280;DHT22;2663;53.588;10.010;2023-04-25T06:24:41;7.60;99.90
5280;DHT22;2663;53.588;10.010;2023-04-25T06:27:07;7.60;99.90
5280;DHT22;2663;53.588;10.010;2023-04-25T06:29:34;6.80;99.90
5280;DHT22;2663;53.588;10.010;2023-04-25T06:32:01;7.60;99.90
5280;DHT22;2663;53.588;10.010;2023-04-25T06:34:28;7.60;99.90
5280;DHT22;2663;53.588;10.010;2023-04-25T06:36:54;7.60;99.90
5280;DHT22;2663;53.588;10.010;2023-04-25T06:39:22;7.50;99.90
5280;DHT22;2663;53.588;10.010;2023-04-25T06:41:52;7.50;99.90
5280;DHT22;2663;53.588;10.010;2023-04-25T06:44:19;7.60;99.90
5280;DHT22;2663;53.588;10.010;2023-04-25T06:46:47;7.60;99.90
5280;DHT22;2663;53.588;10.010;2023-04-25T06:49:14;7.50;99.90
5280;DHT22;2663;53.588;10.010;2023-04-25T06:51:41;7.50;99.90
5280;DHT22;2663;53.588;10.010;2023-04-25T06:54:07;7.60;99.90
5280;DHT22;2663;53.588;10.010;2023-04-25T06:56:34;7.70;99.90
5280;DHT22;2663;53.588;10.010;2023-04-25T06:59:01;7.60;99.90
5280;DHT22;2663;53.588;10.010;2023-04-25T07:01:28;7.60;99.90
5280;DHT22;2663;53.588;10.010;2023-04-25T07:03:54;7.70;99.90
5280;DHT22;2663;53.588;10.010;2023-04-25T07:06:21;7.60;99.90
5280;DHT22;2663;53.588;10.010;2023-04-25T07:08:48;7.60;99.90
5280;DHT22;2663;53.588;10.010;2023-04-25T07:11:15;7.70;99.90
5280;DHT22;2663;53.588;10.010;2023-04-25T07:13:42;7.80;99.90
5280;DHT22;2663;53.588;10.010;2023-04-25T07:16:09;7.70;99.90
5280;DHT22;2663;53.588;10.010;2023-04-25T07:18:35;7.90;99.90
5280;DHT22;2663;53.588;10.010;2023-04-25T07:21:02;7.80;99.90
5280;DHT22;2663;53.588;10.010;2023-04-25T07:23:29;7.70;99.90
5280;DHT22;2663;53.588;10.010;2023-04-25T07:25:56;6.50;99.90
5280;DHT22;2663;53.588;10.010;2023-04-25T07:28:23;7.70;99.90
5280;DHT22;2663;53.588;10.010;2023-04-25T07:30:49;7.80;99.90
5280;DHT22;2663;53.588;10.010;2023-04-25T07:33:17;7.80;99.90
5280;DHT22;2663;53.588;10.010;2023-04-25T07:35:46;7.80;99.90
5280;DHT22;2663;53.588;10.010;2023-04-25T07:38:13;7.80;99.90
5280;DHT22;2663;53.588;10.010;2023-04-25T07:40:40;7.70;99.90
5280;DHT22;2663;53.588;10.010;2023-04-25T07:43:06;7.70;99.90
5280;DHT22;2663;53.588;10.010;2023-04-25T07:45:33;7.80;99.90
5280;DHT22;2663;53.588;10.010;2023-04-25T07:48:00;7.80;99.90
5280;DHT22;2663;53.588;10.010;2023-04-25T07:50:26;8.00;99.90
5280;DHT22;2663;53.588;10.010;2023-04-25T07:52:53;8.10;99.90
5280;DHT22;2663;53.588;10.010;2023-04-25T07:55:20;8.10;99.90
5280;DHT22;2663;53.588;10.010;2023-04-25T07:57:46;8.10;99.90
5280;DHT22;2663;53.588;10.010;2023-04-25T08:00:13;8.20;99.90
5280;DHT22;2663;53.588;10.010;2023-04-25T08:02:41;8.30;99.90
5280;DHT22;2663;53.588;10.010;2023-04-25T08:05:08;8.30;99.90
5280;DHT22;2663;53.588;10.010;2023-04-25T08:07:38;8.30;99.90
5280;DHT22;2663;53.588;10.010;2023-04-25T08:10:06;8.30;99.90
5280;DHT22;2663;53.588;10.010;2023-04-25T08:12:33;8.40;99.90
5280;DHT22;2663;53.588;10.010;2023-04-25T08:15:00;8.20;99.90
5280;DHT22;2663;53.588;10.010;2023-04-25T08:17:26;8.20;99.90
5280;DHT22;2663;53.588;10.010;2023-04-25T08:19:53;8.30;99.90
5280;DHT22;2663;53.588;10.010;2023-04-25T08:22:20;8.20;99.90
5280;DHT22;2663;53.588;10.010;2023-04-25T08:24:47;8.30;99.90
5280;DHT22;2663;53.588;10.010;2023-04-25T08:27:13;8.30;99.90
5280;DHT22;2663;53.588;10.010;2023-04-25T08:29:41;8.30;99.90
5280;DHT22;2663;53.588;10.010;2023-04-25T08:32:08;8.30;99.90
5280;DHT22;2663;53.588;10.010;2023-04-25T08:34:35;8.40;99.90
5280;DHT22;2663;53.588;10.010;2023-04-25T08:37:03;8.60;99.90
5280;DHT22;2663;53.588;10.010;2023-04-25T08:39:30;8.80;99.90
5280;DHT22;2663;53.588;10.010;2023-04-25T08:41:57;8.90;99.90
5280;DHT22;2663;53.588;10.010;2023-04-25T08:44:24;9.00;99.90
5280;DHT22;2663;53.588;10.010;2023-04-25T08:46:52;8.70;99.90
5280;DHT22;2663;53.588;10.010;2023-04-25T08:49:18;8.50;99.90
5280;DHT22;2663;53.588;10.010;2023-04-25T08:51:47;8.30;99.90
5280;DHT22;2663;53.588;10.010;2023-04-25T08:54:14;8.30;99.90
5280;DHT22;2663;53.588;10.010;2023-04-25T08:57:01;8.40;99.90
5280;DHT22;2663;53.588;10.010;2023-04-25T08:59:30;8.50;99.90
5280;DHT22;2663;53.588;10.010;2023-04-25T09:01:57;8.70;99.90
5280;DHT22;2663;53.588;10.010;2023-04-25T09:04:24;8.70;99.90
5280;DHT22;2663;53.588;10.010;2023-04-25T09:06:51;8.90;99.90
5280;DHT22;2663;53.588;10.010;2023-04-25T09:09:17;8.90;99.90
5280;DHT22;2663;53.588;10.010;2023-04-25T09:11:44;8.80;99.90
5280;DHT22;2663;53.588;10.010;2023-04-25T09:19:33;8.50;99.90
5280;DHT22;2663;53.588;10.010;2023-04-25T09:22:05;8.30;99.90
5280;DHT22;2663;53.588;10.010;2023-04-25T09:24:44;8.20;99.90
5280;DHT22;2663;53.588;10.010;2023-04-25T09:27:18;8.30;99.90
5280;DHT22;2663;53.588;10.010;2023-04-25T09:29:45;8.30;99.90
5280;DHT22;2663;53.588;10.010;2023-04-25T09:32:16;8.50;99.90
5280;DHT22;2663;53.588;10.010;2023-04-25T09:34:45;8.30;99.90
5280;DHT22;2663;53.588;10.010;2023-04-25T09:37:18;8.40;99.90
5280;DHT22;2663;53.588;10.010;2023-04-25T09:39:47;8.40;99.90
5280;DHT22;2663;53.588;10.010;2023-04-25T09:42:15;8.30;99.90
5280;DHT22;2663;53.588;10.010;2023-04-25T09:44:44;7.90;99.90
5280;DHT22;2663;53.588;10.010;2023-04-25T09:47:13;7.70;99.90
5280;DHT22;2663;53.588;10.010;2023-04-25T09:49:42;7.40;99.90
5280;DHT22;2663;53.588;10.010;2023-04-25T09:52:13;7.30;99.90
5280;DHT22;2663;53.588;10.010;2023-04-25T09:54:40;7.40;99.90
5280;DHT22;2663;53.588;10.010;2023-04-25T09:57:17;7.40;99.90
5280;DHT22;2663;53.588;10.010;2023-04-25T09:59:52;7.60;99.90
5280;DHT22;2663;53.588;10.010;2023-04-25T10:02:21;7.80;99.90
5280;DHT22;2663;53.588;10.010;2023-04-25T10:04:53;7.90;99.90
5280;DHT22;2663;53.588;10.010;2023-04-25T10:07:24;8.10;99.90
5280;DHT22;2663;53.588;10.010;2023-04-25T10:10:03;8.10;99.90
5280;DHT22;2663;53.588;10.010;2023-04-25T10:12:32;8.20;99.90
5280;DHT22;2663;53.588;10.010;2023-04-25T10:14:59;6.90;99.90
5280;DHT22;2663;53.588;10.010;2023-04-25T10:17:27;8.40;99.90
5280;DHT22;2663;53.588;10.010;2023-04-25T10:19:54;8.60;99.90
5280;DHT22;2663;53.588;10.010;2023-04-25T10:22:35;9.90;99.90
5280;DHT22;2663;53.588;10.010;2023-04-25T10:25:03;8.60;99.90
5280;DHT22;2663;53.588;10.010;2023-04-25T10:27:31;8.60;99.90
5280;DHT22;2663;53.588;10.010;2023-04-25T10:30:08;8.60;99.90
5280;DHT22;2663;53.588;10.010;2023-04-25T10:32:44;8.40;99.90
5280;DHT22;2663;53.588;10.010;2023-04-25T10:35:19;8.60;99.90
5280;DHT22;2663;53.588;10.010;2023-04-25T10:38:08;8.90;99.90
5280;DHT22;2663;53.588;10.010;2023-04-25T10:40:35;8.80;99.90
5280;DHT22;2663;53.588;10.010;2023-04-25T10:45:59;9.00;99.90
5280;DHT22;2663;53.588;10.010;2023-04-25T10:48:28;9.20;99.90
5280;DHT22;2663;53.588;10.010;2023-04-25T10:51:11;9.50;99.90
5280;DHT22;2663;53.588;10.010;2023-04-25T10:53:40;9.80;99.90
5280;DHT22;2663;53.588;10.010;2023-04-25T10:56:17;10.00;99.90
5280;DHT22;2663;53.588;10.010;2023-04-25T10:58:45;9.90;99.90
5280;DHT22;2663;53.588;10.010;2023-04-25T11:01:19;9.70;99.80
5280;DHT22;2663;53.588;10.010;2023-04-25T11:03:46;9.50;99.50
5280;DHT22;2663;53.588;10.010;2023-04-25T11:06:32;9.30;99.90
5280;DHT22;2663;53.588;10.010;2023-04-25T11:09:10;9.30;99.20
5280;DHT22;2663;53.588;10.010;2023-04-25T11:11:39;9.30;98.70
5280;DHT22;2663;53.588;10.010;2023-04-25T11:14:06;9.40;98.90
5280;DHT22;2663;53.588;10.010;2023-04-25T11:16:33;9.40;98.80
5280;DHT22;2663;53.588;10.010;2023-04-25T11:19:00;9.30;98.80
5280;DHT22;2663;53.588;10.010;2023-04-25T11:21:26;9.30;99.90
5280;DHT22;2663;53.588;10.010;2023-04-25T11:23:56;9.00;99.90
5280;DHT22;2663;53.588;10.010;2023-04-25T11:26:24;8.90;99.90
5280;DHT22;2663;53.588;10.010;2023-04-25T11:28:51;8.80;99.90
5280;DHT22;2663;53.588;10.010;2023-04-25T11:31:20;8.90;99.90
5280;DHT22;2663;53.588;10.010;2023-04-25T11:33:48;7.50;99.90
5280;DHT22;2663;53.588;10.010;2023-04-25T11:36:14;9.00;99.90
5280;DHT22;2663;53.588;10.010;2023-04-25T11:38:41;9.00;99.90
5280;DHT22;2663;53.588;10.010;2023-04-25T11:41:08;8.80;99.90
5280;DHT22;2663;53.588;10.010;2023-04-25T11:43:35;8.70;99.90
5280;DHT22;2663;53.588;10.010;2023-04-25T11:46:06;8.60;99.90
5280;DHT22;2663;53.588;10.010;2023-04-25T11:48:40;8.50;99.90
5280;DHT22;2663;53.588;10.010;2023-04-25T11:51:08;8.70;99.90
5280;DHT22;2663;53.588;10.010;2023-04-25T11:53:34;8.80;99.90
5280;DHT22;2663;53.588;10.010;2023-04-25T11:56:01;9.20;99.90
5280;DHT22;2663;53.588;10.010;2023-04-25T11:58:28;9.40;99.90
5280;DHT22;2663;53.588;10.010;2023-04-25T12:00:56;9.60;99.90
5280;DHT22;2663;53.588;10.010;2023-04-25T12:03:24;9.60;99.90
5280;DHT22;2663;53.588;10.010;2023-04-25T12:06:02;9.70;99.90
5280;DHT22;2663;53.588;10.010;2023-04-25T12:08:30;9.50;99.90
5280;DHT22;2663;53.588;10.010;2023-04-25T12:10:57;9.70;99.90
5280;DHT22;2663;53.588;10.010;2023-04-25T12:13:26;9.70;99.90
5280;DHT22;2663;53.588;10.010;2023-04-25T12:15:54;9.90;99.90
5280;DHT22;2663;53.588;10.010;2023-04-25T12:18:25;10.10;97.80
5280;DHT22;2663;53.588;10.010;2023-04-25T12:20:55;10.20;95.70
5280;DHT22;2663;53.588;10.010;2023-04-25T12:23:28;10.00;94.40
5280;DHT22;2663;53.588;10.010;2023-04-25T12:25:55;10.00;95.30
5280;DHT22;2663;53.588;10.010;2023-04-25T12:28:24;9.80;96.50
5280;DHT22;2663;53.588;10.010;2023-04-25T12:33:22;9.60;94.40
5280;DHT22;2663;53.588;10.010;2023-04-25T12:35:49;9.70;94.70
5280;DHT22;2663;53.588;10.010;2023-04-25T12:38:28;9.90;94.80
5280;DHT22;2663;53.588;10.010;2023-04-25T12:40:57;10.00;95.40
5280;DHT22;2663;53.588;10.010;2023-04-25T12:43:24;10.30;93.00
5280;DHT22;2663;53.588;10.010;2023-04-25T12:45:52;10.00;92.70
5280;DHT22;2663;53.588;10.010;2023-04-25T12:48:19;10.30;93.50
5280;DHT22;2663;53.588;10.010;2023-04-25T12:50:47;10.40;93.30
5280;DHT22;2663;53.588;10.010;2023-04-25T12:53:16;10.40;93.90
5280;DHT22;2663;53.588;10.010;2023-04-25T12:55:43;10.10;98.90
5280;DHT22;2663;53.588;10.010;2023-04-25T12:58:16;9.30;99.90
5280;DHT22;2663;53.588;10.010;2023-04-25T13:00:44;9.10;99.90
5280;DHT22;2663;53.588;10.010;2023-04-25T13:03:11;9.00;99.90
5280;DHT22;2663;53.588;10.010;2023-04-25T13:05:39;9.20;99.90
5280;DHT22;2663;53.588;10.010;2023-04-25T13:08:06;9.40;99.90
5280;DHT22;2663;53.588;10.010;2023-04-25T13:10:32;9.70;99.90
5280;DHT22;2663;53.588;10.010;2023-04-25T13:13:00;9.70;99.20
5280;DHT22;2663;53.588;10.010;2023-04-25T13:15:28;9.90;99.10
5280;DHT22;2663;53.588;10.010;2023-04-25T13:17:54;10.10;98.80
5280;DHT22;2663;53.588;10.010;2023-04-25T13:20:22;10.40;99.90
5280;DHT22;2663;53.588;10.010;2023-04-25T13:22:49;9.10;99.90
5280;DHT22;2663;53.588;10.010;2023-04-25T13:25:16;8.10;99.90
5280;DHT22;2663;53.588;10.010;2023-04-25T13:27:43;7.90;99.90
5280;DHT22;2663;53.588;10.010;2023-04-25T13:30:11;7.90;99.90
5280;DHT22;2663;53.588;10.010;2023-04-25T13:32:39;7.90;99.90
5280;DHT22;2663;53.588;10.010;2023-04-25T13:35:08;8.00;99.90
5280;DHT22;2663;53.588;10.010;2023-04-25T13:37:37;8.50;99.90
5280;DHT22;2663;53.588;10.010;2023-04-25T13:40:09;8.50;99.90
5280;DHT22;2663;53.588;10.010;2023-04-25T13:42:37;8.70;99.90
5280;DHT22;2663;53.588;10.010;2023-04-25T13:45:05;8.90;99.90
5280;DHT22;2663;53.588;10.010;2023-04-25T13:47:31;9.00;99.90
5280;DHT22;2663;53.588;10.010;2023-04-25T13:49:58;8.70;99.90
5280;DHT22;2663;53.588;10.010;2023-04-25T13:52:25;8.00;99.90
5280;DHT22;2663;53.588;10.010;2023-04-25T13:54:52;7.70;99.90
5280;DHT22;2663;53.588;10.010;2023-04-25T13:57:19;7.40;99.90
5280;DHT22;2663;53.588;10.010;2023-04-25T13:59:46;7.40;99.90
5280;DHT22;2663;53.588;10.010;2023-04-25T14:02:13;7.40;99.90
5280;DHT22;2663;53.588;10.010;2023-04-25T14:04:40;7.40;99.90
5280;DHT22;2663;53.588;10.010;2023-04-25T14:07:07;7.50;99.90
5280;DHT22;2663;53.588;10.010;2023-04-25T14:09:34;7.70;99.90
5280;DHT22;2663;53.588;10.010;2023-04-25T14:12:01;7.80;99.90
5280;DHT22;2663;53.588;10.010;2023-04-25T14:14:28;7.90;99.90
5280;DHT22;2663;53.588;10.010;2023-04-25T14:16:55;7.80;99.90
5280;DHT22;2663;53.588;10.010;2023-04-25T14:19:23;8.10;99.90
5280;DHT22;2663;53.588;10.010;2023-04-25T14:21:50;8.50;99.90
5280;DHT22;2663;53.588;10.010;2023-04-25T14:24:17;8.70;99.90
5280;DHT22;2663;53.588;10.010;2023-04-25T14:26:44;9.20;99.90
5280;DHT22;2663;53.588;10.010;2023-04-25T14:29:11;9.40;99.90
5280;DHT22;2663;53.588;10.010;2023-04-25T14:31:40;9.70;99.90
5280;DHT22;2663;53.588;10.010;2023-04-25T14:34:08;10.10;99.90
5280;DHT22;2663;53.588;10.010;2023-04-25T14:36:35;10.20;99.90
5280;DHT22;2663;53.588;10.010;2023-04-25T14:39:03;10.40;99.90
5280;DHT22;2663;53.588;10.010;2023-04-25T14:41:31;10.50;99.80
5280;DHT22;2663;53.588;10.010;2023-04-25T14:43:58;10.40;99.80
5280;DHT22;2663;53.588;10.010;2023-04-25T14:46:25;10.50;97.60
5280;DHT22;2663;53.588;10.010;2023-04-25T14:48:52;10.80;97.00
5280;DHT22;2663;53.588;10.010;2023-04-25T14:51:19;10.80;96.70
5280;DHT22;2663;53.588;10.010;2023-04-25T14:53:46;10.70;96.50
5280;DHT22;2663;53.588;10.010;2023-04-25T14:56:13;10.90;96.40
5280;DHT22;2663;53.588;10.010;2023-04-25T14:58:40;10.70;95.60
5280;DHT22;2663;53.588;10.010;2023-04-25T15:01:07;10.50;96.30
5280;DHT22;2663;53.588;10.010;2023-04-25T15:03:34;10.40;95.80
5280;DHT22;2663;53.588;10.010;2023-04-25T15:06:02;10.10;95.60
5280;DHT22;2663;53.588;10.010;2023-04-25T15:08:28;9.80;97.30
5280;DHT22;2663;53.588;10.010;2023-04-25T15:10:55;9.60;99.70
5280;DHT22;2663;53.588;10.010;2023-04-25T15:13:22;9.60;99.90
5280;DHT22;2663;53.588;10.010;2023-04-25T15:15:48;9.70;99.90
5280;DHT22;2663;53.588;10.010;2023-04-25T15:18:19;9.60;99.90
5280;DHT22;2663;53.588;10.010;2023-04-25T15:20:48;9.80;99.90
5280;DHT22;2663;53.588;10.010;2023-04-25T15:23:15;9.70;99.90
5280;DHT22;2663;53.588;10.010;2023-04-25T15:25:42;9.70;99.90
5280;DHT22;2663;53.588;10.010;2023-04-25T15:28:09;9.80;99.90
5280;DHT22;2663;53.588;10.010;2023-04-25T15:30:36;9.60;99.90
5280;DHT22;2663;53.588;10.010;2023-04-25T15:33:03;9.40;99.90
5280;DHT22;2663;53.588;10.010;2023-04-25T15:35:29;9.20;99.90
5280;DHT22;2663;53.588;10.010;2023-04-25T15:37:56;9.10;99.90
5280;DHT22;2663;53.588;10.010;2023-04-25T15:40:23;9.10;99.90
5280;DHT22;2663;53.588;10.010;2023-04-25T15:42:51;9.20;99.90
5280;DHT22;2663;53.588;10.010;2023-04-25T15:45:19;9.30;99.90
5280;DHT22;2663;53.588;10.010;2023-04-25T15:47:47;9.80;98.60
5280;DHT22;2663;53.588;10.010;2023-04-25T15:50:14;10.20;97.70
5280;DHT22;2663;53.588;10.010;2023-04-25T15:52:42;10.50;96.80
5280;DHT22;2663;53.588;10.010;2023-04-25T15:55:09;11.00;96.40
5280;DHT22;2663;53.588;10.010;2023-04-25T15:57:37;11.00;95.80
5280;DHT22;2663;53.588;10.010;2023-04-25T16:00:05;11.30;95.30
5280;DHT22;2663;53.588;10.010;2023-04-25T16:02:40;12.90;99.90
5280;DHT22;2663;53.588;10.010;2023-04-25T16:05:08;12.70;97.10
5280;DHT22;2663;53.588;10.010;2023-04-25T16:07:37;11.70;96.60
5280;DHT22;2663;53.588;10.010;2023-04-25T16:10:05;12.00;97.80
5280;DHT22;2663;53.588;10.010;2023-04-25T16:12:31;12.00;94.60
5280;DHT22;2663;53.588;10.010;2023-04-25T16:14:58;12.50;95.10